Troy, NY

8:34 PM EST on December 02, 2016 (GMT -0500)
Sycaway | | Change Station

Elev 406 ft 42.73 °N, 73.66 °W | Updated 4 minutes ago

Mostly Cloudy
Mostly Cloudy
42.3 °F
Feels Like 42 °F
N
3.0
Wind Variable Wind from WSW
Gusts 3.0 mph

Today
High -- | Low -- °F
--% Chance of Precip.
Yesterday
High -- | Low -- °F
Precip. -- in
Pressure 29.82 in
Visibility 10.0 miles
Clouds Few 4300 ft
Few 5000 ft
Mostly Cloudy 9500 ft
Windchill 42 °F
Dew Point 32 °F
Humidity 67%
Rainfall 0.00 in
Snow Depth Not available.
7:06 AM 4:21 PM
Waxing Crescent, 11% visible
METAR KALB 030051Z 25008KT 10SM FEW043 FEW050 BKN095 06/M02 A2981 RMK AO2 SLP097 T00561017
Pressure 29.82 in
Visibility 10.0 miles
Clouds Few 4300 ft
Few 5000 ft
Mostly Cloudy 9500 ft
Windchill 42 °F
Dew Point 32 °F
Humidity 67%
Rainfall 0.00 in
Snow Depth Not available.
7:06 AM 4:21 PM
Waxing Crescent, 11% visible
METAR KALB 030051Z 25008KT 10SM FEW043 FEW050 BKN095 06/M02 A2981 RMK AO2 SLP097 T00561017

10-Day Weather Forecast

Almanac

Astronomy

Dec. 02, 2016 Rise Set
Actual Time
Civil Twilight
Nautical Twilight
Astronomical Twilight
Moon
Length of Visible Light
Length of Day
Tomorrow will be .
, % of the Moon is Illuminated

Today's Extremes

State Highs State Lows

Community

WunderPhotos

Upload Photos

1,955,390 photos uploaded!

WunderBlog® & News

Nearby

Air Quality

  Air Quality AQ Index Pollutant
Not available.

Snow Depth

Station Depth Elevation

Earthquake Activity

City Distance Mag. Time & Date
Minimum magnitude displayed is 2.5.

Coastal Water Temperatures

Place Temperature

Stations

Nearby Weather Stations

Station Location Temp. Windchill Dew Point Humidity Wind Precip. Elev Updated Type
                   

Watches & Warnings

There are currently no watches in effect.